sensor_id;sensor_type;location;lat;lon;timestamp;temperature;humidity
45339;DHT22;31071;51.478;5.710;2023-04-22T00:00:11;7.30;99.90
45339;DHT22;31071;51.478;5.710;2023-04-22T00:02:37;7.30;99.90
45339;DHT22;31071;51.478;5.710;2023-04-22T00:05:04;7.20;99.90
45339;DHT22;31071;51.478;5.710;2023-04-22T00:07:31;7.10;99.90
45339;DHT22;31071;51.478;5.710;2023-04-22T00:09:56;7.20;99.90
45339;DHT22;31071;51.478;5.710;2023-04-22T00:12:22;7.30;99.90
45339;DHT22;31071;51.478;5.710;2023-04-22T00:14:48;7.30;99.90
45339;DHT22;31071;51.478;5.710;2023-04-22T00:17:13;7.40;99.90
45339;DHT22;31071;51.478;5.710;2023-04-22T00:19:40;7.40;99.90
45339;DHT22;31071;51.478;5.710;2023-04-22T00:22:06;6.20;99.90
45339;DHT22;31071;51.478;5.710;2023-04-22T00:24:32;7.30;99.90
45339;DHT22;31071;51.478;5.710;2023-04-22T00:26:57;7.40;99.90
45339;DHT22;31071;51.478;5.710;2023-04-22T00:29:24;7.40;99.90
45339;DHT22;31071;51.478;5.710;2023-04-22T00:31:50;7.40;99.90
45339;DHT22;31071;51.478;5.710;2023-04-22T00:34:16;7.40;99.90
45339;DHT22;31071;51.478;5.710;2023-04-22T00:36:42;7.50;99.90
45339;DHT22;31071;51.478;5.710;2023-04-22T00:39:08;7.60;99.90
45339;DHT22;31071;51.478;5.710;2023-04-22T00:41:34;7.70;99.90
45339;DHT22;31071;51.478;5.710;2023-04-22T00:43:59;7.70;99.90
45339;DHT22;31071;51.478;5.710;2023-04-22T00:46:25;7.80;99.90
45339;DHT22;31071;51.478;5.710;2023-04-22T00:48:52;7.80;99.90
45339;DHT22;31071;51.478;5.710;2023-04-22T00:51:17;9.20;99.90
45339;DHT22;31071;51.478;5.710;2023-04-22T00:53:43;7.90;99.90
45339;DHT22;31071;51.478;5.710;2023-04-22T00:56:09;7.90;99.90
45339;DHT22;31071;51.478;5.710;2023-04-22T00:58:35;7.90;99.90
45339;DHT22;31071;51.478;5.710;2023-04-22T01:01:01;7.90;99.90
45339;DHT22;31071;51.478;5.710;2023-04-22T01:03:27;7.90;99.90
45339;DHT22;31071;51.478;5.710;2023-04-22T01:05:56;7.90;99.90
45339;DHT22;31071;51.478;5.710;2023-04-22T01:08:27;8.00;99.90
45339;DHT22;31071;51.478;5.710;2023-04-22T01:10:53;8.10;99.90
45339;DHT22;31071;51.478;5.710;2023-04-22T01:13:18;8.10;99.90
45339;DHT22;31071;51.478;5.710;2023-04-22T01:15:44;8.20;99.90
45339;DHT22;31071;51.478;5.710;2023-04-22T01:18:10;8.20;99.90
45339;DHT22;31071;51.478;5.710;2023-04-22T01:20:36;8.20;99.90
45339;DHT22;31071;51.478;5.710;2023-04-22T01:23:02;8.20;99.90
45339;DHT22;31071;51.478;5.710;2023-04-22T01:25:34;8.20;99.90
45339;DHT22;31071;51.478;5.710;2023-04-22T01:27:59;8.30;99.90
45339;DHT22;31071;51.478;5.710;2023-04-22T01:30:25;8.30;99.90
45339;DHT22;31071;51.478;5.710;2023-04-22T01:32:51;8.30;99.90
45339;DHT22;31071;51.478;5.710;2023-04-22T01:35:17;8.30;99.90
45339;DHT22;31071;51.478;5.710;2023-04-22T01:37:42;8.30;99.90
45339;DHT22;31071;51.478;5.710;2023-04-22T01:40:09;8.30;99.90
45339;DHT22;31071;51.478;5.710;2023-04-22T01:42:35;8.30;99.90
45339;DHT22;31071;51.478;5.710;2023-04-22T01:45:01;8.20;99.90
45339;DHT22;31071;51.478;5.710;2023-04-22T01:47:26;8.20;99.90
45339;DHT22;31071;51.478;5.710;2023-04-22T01:49:52;8.30;99.90
45339;DHT22;31071;51.478;5.710;2023-04-22T01:52:17;8.30;99.90
45339;DHT22;31071;51.478;5.710;2023-04-22T01:54:43;8.30;99.90
45339;DHT22;31071;51.478;5.710;2023-04-22T01:57:10;8.30;99.90
45339;DHT22;31071;51.478;5.710;2023-04-22T02:02:04;8.20;99.90
45339;DHT22;31071;51.478;5.710;2023-04-22T02:04:30;8.20;99.90
45339;DHT22;31071;51.478;5.710;2023-04-22T02:06:55;8.20;99.90
45339;DHT22;31071;51.478;5.710;2023-04-22T02:09:21;8.20;99.90
45339;DHT22;31071;51.478;5.710;2023-04-22T02:11:46;8.20;99.90
45339;DHT22;31071;51.478;5.710;2023-04-22T02:14:12;8.20;99.90
45339;DHT22;31071;51.478;5.710;2023-04-22T02:16:40;8.20;99.90
45339;DHT22;31071;51.478;5.710;2023-04-22T02:19:05;8.20;99.90
45339;DHT22;31071;51.478;5.710;2023-04-22T02:21:31;8.30;99.90
45339;DHT22;31071;51.478;5.710;2023-04-22T02:23:58;8.30;99.90
45339;DHT22;31071;51.478;5.710;2023-04-22T02:26:23;8.40;99.90
45339;DHT22;31071;51.478;5.710;2023-04-22T02:28:50;9.70;99.90
45339;DHT22;31071;51.478;5.710;2023-04-22T02:31:16;8.40;99.90
45339;DHT22;31071;51.478;5.710;2023-04-22T02:33:42;8.20;99.90
45339;DHT22;31071;51.478;5.710;2023-04-22T02:36:07;8.50;99.90
45339;DHT22;31071;51.478;5.710;2023-04-22T02:38:33;8.50;99.90
45339;DHT22;31071;51.478;5.710;2023-04-22T02:40:58;8.50;99.90
45339;DHT22;31071;51.478;5.710;2023-04-22T02:43:24;8.60;99.90
45339;DHT22;31071;51.478;5.710;2023-04-22T02:45:49;8.60;99.90
45339;DHT22;31071;51.478;5.710;2023-04-22T02:48:15;8.60;99.90
45339;DHT22;31071;51.478;5.710;2023-04-22T02:50:40;8.60;99.90
45339;DHT22;31071;51.478;5.710;2023-04-22T02:53:07;8.60;99.90
45339;DHT22;31071;51.478;5.710;2023-04-22T02:55:33;8.60;99.90
45339;DHT22;31071;51.478;5.710;2023-04-22T02:57:58;8.60;99.90
45339;DHT22;31071;51.478;5.710;2023-04-22T03:00:24;8.60;99.90
45339;DHT22;31071;51.478;5.710;2023-04-22T03:02:49;8.70;99.90
45339;DHT22;31071;51.478;5.710;2023-04-22T03:05:15;8.70;99.90
45339;DHT22;31071;51.478;5.710;2023-04-22T03:07:40;8.80;99.90
45339;DHT22;31071;51.478;5.710;2023-04-22T03:10:07;8.70;99.90
45339;DHT22;31071;51.478;5.710;2023-04-22T03:12:32;8.70;99.90
45339;DHT22;31071;51.478;5.710;2023-04-22T03:14:58;8.70;99.90
45339;DHT22;31071;51.478;5.710;2023-04-22T03:17:23;8.80;99.90
45339;DHT22;31071;51.478;5.710;2023-04-22T03:19:50;8.70;99.90
45339;DHT22;31071;51.478;5.710;2023-04-22T03:22:15;8.70;99.90
45339;DHT22;31071;51.478;5.710;2023-04-22T03:24:41;8.80;99.90
45339;DHT22;31071;51.478;5.710;2023-04-22T03:27:07;8.80;99.90
45339;DHT22;31071;51.478;5.710;2023-04-22T03:29:33;8.70;99.90
45339;DHT22;31071;51.478;5.710;2023-04-22T03:31:59;8.70;99.90
45339;DHT22;31071;51.478;5.710;2023-04-22T03:34:24;8.80;99.90
45339;DHT22;31071;51.478;5.710;2023-04-22T03:36:51;8.70;99.90
45339;DHT22;31071;51.478;5.710;2023-04-22T03:39:16;8.70;99.90
45339;DHT22;31071;51.478;5.710;2023-04-22T03:41:42;8.60;99.90
45339;DHT22;31071;51.478;5.710;2023-04-22T03:44:07;8.60;99.90
45339;DHT22;31071;51.478;5.710;2023-04-22T03:46:33;8.60;99.90
45339;DHT22;31071;51.478;5.710;2023-04-22T03:48:58;8.60;99.90
45339;DHT22;31071;51.478;5.710;2023-04-22T03:51:24;8.70;99.90
45339;DHT22;31071;51.478;5.710;2023-04-22T03:53:49;8.70;99.90
45339;DHT22;31071;51.478;5.710;2023-04-22T03:56:15;8.60;99.90
45339;DHT22;31071;51.478;5.710;2023-04-22T03:58:40;8.50;99.90
45339;DHT22;31071;51.478;5.710;2023-04-22T04:01:06;8.50;99.90
45339;DHT22;31071;51.478;5.710;2023-04-22T04:03:32;8.50;99.90
45339;DHT22;31071;51.478;5.710;2023-04-22T04:05:57;8.50;99.90
45339;DHT22;31071;51.478;5.710;2023-04-22T04:08:23;8.60;99.90
45339;DHT22;31071;51.478;5.710;2023-04-22T04:10:48;8.60;99.90
45339;DHT22;31071;51.478;5.710;2023-04-22T04:13:14;8.60;99.90
45339;DHT22;31071;51.478;5.710;2023-04-22T04:15:39;8.70;99.90
45339;DHT22;31071;51.478;5.710;2023-04-22T04:18:05;8.70;99.90
45339;DHT22;31071;51.478;5.710;2023-04-22T04:20:30;8.80;99.90
45339;DHT22;31071;51.478;5.710;2023-04-22T04:22:56;8.70;99.90
45339;DHT22;31071;51.478;5.710;2023-04-22T04:25:22;8.70;99.90
45339;DHT22;31071;51.478;5.710;2023-04-22T04:27:47;8.70;99.90
45339;DHT22;31071;51.478;5.710;2023-04-22T04:30:14;8.60;99.90
45339;DHT22;31071;51.478;5.710;2023-04-22T04:32:40;8.50;99.90
45339;DHT22;31071;51.478;5.710;2023-04-22T04:35:07;8.60;99.90
45339;DHT22;31071;51.478;5.710;2023-04-22T04:37:33;8.50;99.90
45339;DHT22;31071;51.478;5.710;2023-04-22T04:39:58;8.50;99.90
45339;DHT22;31071;51.478;5.710;2023-04-22T04:42:24;8.50;99.90
45339;DHT22;31071;51.478;5.710;2023-04-22T04:44:51;8.50;99.90
45339;DHT22;31071;51.478;5.710;2023-04-22T04:47:17;8.50;99.90
45339;DHT22;31071;51.478;5.710;2023-04-22T04:49:44;8.60;99.90
45339;DHT22;31071;51.478;5.710;2023-04-22T04:52:10;8.60;99.90
45339;DHT22;31071;51.478;5.710;2023-04-22T04:54:36;8.60;99.90
45339;DHT22;31071;51.478;5.710;2023-04-22T04:57:02;8.60;99.90
45339;DHT22;31071;51.478;5.710;2023-04-22T04:59:27;8.70;99.90
45339;DHT22;31071;51.478;5.710;2023-04-22T05:01:53;8.80;99.90
45339;DHT22;31071;51.478;5.710;2023-04-22T05:04:19;8.80;99.90
45339;DHT22;31071;51.478;5.710;2023-04-22T05:06:44;8.80;99.90
45339;DHT22;31071;51.478;5.710;2023-04-22T05:09:10;12.20;99.90
45339;DHT22;31071;51.478;5.710;2023-04-22T05:11:36;8.90;99.90
45339;DHT22;31071;51.478;5.710;2023-04-22T05:14:02;8.90;99.90
45339;DHT22;31071;51.478;5.710;2023-04-22T05:16:27;8.90;99.90
45339;DHT22;31071;51.478;5.710;2023-04-22T05:18:53;8.80;99.90
45339;DHT22;31071;51.478;5.710;2023-04-22T05:21:19;9.20;99.90
45339;DHT22;31071;51.478;5.710;2023-04-22T05:23:44;8.90;99.90
45339;DHT22;31071;51.478;5.710;2023-04-22T05:26:10;8.90;99.90
45339;DHT22;31071;51.478;5.710;2023-04-22T05:28:36;8.80;99.90
45339;DHT22;31071;51.478;5.710;2023-04-22T05:31:01;8.90;99.90
45339;DHT22;31071;51.478;5.710;2023-04-22T05:33:27;8.90;99.90
45339;DHT22;31071;51.478;5.710;2023-04-22T05:35:52;9.00;99.90
45339;DHT22;31071;51.478;5.710;2023-04-22T05:38:18;9.00;99.90
45339;DHT22;31071;51.478;5.710;2023-04-22T05:40:43;9.10;99.90
45339;DHT22;31071;51.478;5.710;2023-04-22T05:43:09;9.20;99.90
45339;DHT22;31071;51.478;5.710;2023-04-22T05:45:34;9.30;99.90
45339;DHT22;31071;51.478;5.710;2023-04-22T05:48:00;9.30;99.90
45339;DHT22;31071;51.478;5.710;2023-04-22T05:50:26;9.50;99.90
45339;DHT22;31071;51.478;5.710;2023-04-22T05:52:51;9.50;99.90
45339;DHT22;31071;51.478;5.710;2023-04-22T05:55:17;9.50;99.90
45339;DHT22;31071;51.478;5.710;2023-04-22T05:57:43;9.50;99.90
45339;DHT22;31071;51.478;5.710;2023-04-22T06:00:09;9.60;99.90
45339;DHT22;31071;51.478;5.710;2023-04-22T06:02:34;9.60;99.90
45339;DHT22;31071;51.478;5.710;2023-04-22T06:05:00;9.70;99.90
45339;DHT22;31071;51.478;5.710;2023-04-22T06:07:25;9.90;99.90
45339;DHT22;31071;51.478;5.710;2023-04-22T06:09:51;10.30;99.90
45339;DHT22;31071;51.478;5.710;2023-04-22T06:12:18;10.30;99.90
45339;DHT22;31071;51.478;5.710;2023-04-22T06:14:43;10.40;99.90
45339;DHT22;31071;51.478;5.710;2023-04-22T06:17:09;10.40;99.90
45339;DHT22;31071;51.478;5.710;2023-04-22T06:19:34;10.40;99.90
45339;DHT22;31071;51.478;5.710;2023-04-22T06:22:00;10.60;99.90
45339;DHT22;31071;51.478;5.710;2023-04-22T06:24:25;10.70;99.90
45339;DHT22;31071;51.478;5.710;2023-04-22T06:26:51;10.90;99.90
45339;DHT22;31071;51.478;5.710;2023-04-22T06:29:16;10.90;99.90
45339;DHT22;31071;51.478;5.710;2023-04-22T06:31:42;10.90;99.90
45339;DHT22;31071;51.478;5.710;2023-04-22T06:34:08;11.00;99.90
45339;DHT22;31071;51.478;5.710;2023-04-22T06:36:33;11.10;99.90
45339;DHT22;31071;51.478;5.710;2023-04-22T06:39:02;10.20;99.90
45339;DHT22;31071;51.478;5.710;2023-04-22T06:41:30;11.20;99.90
45339;DHT22;31071;51.478;5.710;2023-04-22T06:43:56;11.40;99.90
45339;DHT22;31071;51.478;5.710;2023-04-22T06:46:21;11.50;99.90
45339;DHT22;31071;51.478;5.710;2023-04-22T06:48:47;11.70;99.90
45339;DHT22;31071;51.478;5.710;2023-04-22T06:51:12;11.70;99.90
45339;DHT22;31071;51.478;5.710;2023-04-22T06:53:38;12.00;99.90
45339;DHT22;31071;51.478;5.710;2023-04-22T06:56:04;12.30;99.90
45339;DHT22;31071;51.478;5.710;2023-04-22T06:58:30;12.50;99.90
45339;DHT22;31071;51.478;5.710;2023-04-22T07:00:55;13.20;99.90
45339;DHT22;31071;51.478;5.710;2023-04-22T07:03:21;14.10;99.90
45339;DHT22;31071;51.478;5.710;2023-04-22T07:05:46;14.50;99.90
45339;DHT22;31071;51.478;5.710;2023-04-22T07:08:13;14.40;99.90
45339;DHT22;31071;51.478;5.710;2023-04-22T07:10:38;14.60;99.90
45339;DHT22;31071;51.478;5.710;2023-04-22T07:13:04;15.00;99.90
45339;DHT22;31071;51.478;5.710;2023-04-22T07:15:30;14.70;99.90
45339;DHT22;31071;51.478;5.710;2023-04-22T07:17:55;14.50;99.90
45339;DHT22;31071;51.478;5.710;2023-04-22T07:20:21;14.20;99.90
45339;DHT22;31071;51.478;5.710;2023-04-22T07:22:46;14.10;99.90
45339;DHT22;31071;51.478;5.710;2023-04-22T07:25:12;15.10;99.90
45339;DHT22;31071;51.478;5.710;2023-04-22T07:27:38;14.00;99.90
45339;DHT22;31071;51.478;5.710;2023-04-22T07:30:06;14.20;99.90
45339;DHT22;31071;51.478;5.710;2023-04-22T07:32:32;14.70;99.90
45339;DHT22;31071;51.478;5.710;2023-04-22T07:34:58;15.00;99.90
45339;DHT22;31071;51.478;5.710;2023-04-22T07:37:23;14.70;99.90
45339;DHT22;31071;51.478;5.710;2023-04-22T07:39:50;14.80;99.90
45339;DHT22;31071;51.478;5.710;2023-04-22T07:42:15;14.50;99.90
45339;DHT22;31071;51.478;5.710;2023-04-22T07:44:41;14.40;99.90
45339;DHT22;31071;51.478;5.710;2023-04-22T07:47:06;14.40;99.90
45339;DHT22;31071;51.478;5.710;2023-04-22T07:49:34;14.70;99.90
45339;DHT22;31071;51.478;5.710;2023-04-22T07:51:59;14.80;99.90
45339;DHT22;31071;51.478;5.710;2023-04-22T07:54:25;15.10;99.90
45339;DHT22;31071;51.478;5.710;2023-04-22T07:56:50;15.60;99.90
45339;DHT22;31071;51.478;5.710;2023-04-22T07:59:17;15.60;99.90
45339;DHT22;31071;51.478;5.710;2023-04-22T08:01:43;15.70;99.90
45339;DHT22;31071;51.478;5.710;2023-04-22T08:04:10;15.60;99.90
45339;DHT22;31071;51.478;5.710;2023-04-22T08:06:35;15.60;99.90
45339;DHT22;31071;51.478;5.710;2023-04-22T08:09:01;16.10;99.90
45339;DHT22;31071;51.478;5.710;2023-04-22T08:11:26;16.40;99.90
45339;DHT22;31071;51.478;5.710;2023-04-22T08:13:52;17.10;99.90
45339;DHT22;31071;51.478;5.710;2023-04-22T08:16:18;17.30;99.90
45339;DHT22;31071;51.478;5.710;2023-04-22T08:18:43;17.30;99.50
45339;DHT22;31071;51.478;5.710;2023-04-22T08:21:09;18.50;99.90
45339;DHT22;31071;51.478;5.710;2023-04-22T08:23:35;17.70;98.90
45339;DHT22;31071;51.478;5.710;2023-04-22T08:26:04;17.40;98.50
45339;DHT22;31071;51.478;5.710;2023-04-22T08:28:29;17.50;99.00
45339;DHT22;31071;51.478;5.710;2023-04-22T08:30:55;17.70;97.30
45339;DHT22;31071;51.478;5.710;2023-04-22T08:33:20;17.90;96.70
45339;DHT22;31071;51.478;5.710;2023-04-22T08:35:46;18.20;96.30
45339;DHT22;31071;51.478;5.710;2023-04-22T08:38:12;18.30;96.00
45339;DHT22;31071;51.478;5.710;2023-04-22T08:40:40;19.10;95.00
45339;DHT22;31071;51.478;5.710;2023-04-22T08:43:06;19.00;93.50
45339;DHT22;31071;51.478;5.710;2023-04-22T08:45:32;18.40;94.50
45339;DHT22;31071;51.478;5.710;2023-04-22T08:47:58;18.30;94.80
45339;DHT22;31071;51.478;5.710;2023-04-22T08:50:25;18.50;94.20
45339;DHT22;31071;51.478;5.710;2023-04-22T08:52:51;18.50;93.70
45339;DHT22;31071;51.478;5.710;2023-04-22T08:55:16;18.60;93.80
45339;DHT22;31071;51.478;5.710;2023-04-22T08:57:44;18.40;94.30
45339;DHT22;31071;51.478;5.710;2023-04-22T09:06:10;20.70;90.40
45339;DHT22;31071;51.478;5.710;2023-04-22T09:11:02;20.20;90.00
45339;DHT22;31071;51.478;5.710;2023-04-22T09:13:28;19.60;90.70
45339;DHT22;31071;51.478;5.710;2023-04-22T09:15:54;19.20;90.00
45339;DHT22;31071;51.478;5.710;2023-04-22T09:18:20;19.30;91.70
45339;DHT22;31071;51.478;5.710;2023-04-22T09:20:53;19.60;90.70
45339;DHT22;31071;51.478;5.710;2023-04-22T09:23:18;19.40;90.60
45339;DHT22;31071;51.478;5.710;2023-04-22T09:25:44;19.00;91.30
45339;DHT22;31071;51.478;5.710;2023-04-22T09:28:11;19.20;91.90
45339;DHT22;31071;51.478;5.710;2023-04-22T09:30:37;22.80;93.10
45339;DHT22;31071;51.478;5.710;2023-04-22T09:33:05;20.00;91.50
45339;DHT22;31071;51.478;5.710;2023-04-22T09:35:33;19.70;91.50
45339;DHT22;31071;51.478;5.710;2023-04-22T09:38:01;20.20;90.20
45339;DHT22;31071;51.478;5.710;2023-04-22T09:40:28;20.90;88.30
45339;DHT22;31071;51.478;5.710;2023-04-22T09:42:55;21.10;85.60
45339;DHT22;31071;51.478;5.710;2023-04-22T09:48:01;22.00;80.90
45339;DHT22;31071;51.478;5.710;2023-04-22T09:50:27;21.00;83.00
45339;DHT22;31071;51.478;5.710;2023-04-22T09:52:58;20.60;82.80
45339;DHT22;31071;51.478;5.710;2023-04-22T09:55:26;22.00;83.80
45339;DHT22;31071;51.478;5.710;2023-04-22T09:57:53;21.70;86.10
45339;DHT22;31071;51.478;5.710;2023-04-22T10:00:20;20.80;84.10
45339;DHT22;31071;51.478;5.710;2023-04-22T10:02:46;20.20;83.60
45339;DHT22;31071;51.478;5.710;2023-04-22T10:05:12;20.50;83.60
45339;DHT22;31071;51.478;5.710;2023-04-22T10:07:41;22.20;82.20
45339;DHT22;31071;51.478;5.710;2023-04-22T10:10:08;21.80;80.00
45339;DHT22;31071;51.478;5.710;2023-04-22T10:12:34;21.50;80.20
45339;DHT22;31071;51.478;5.710;2023-04-22T10:15:01;21.70;82.60
45339;DHT22;31071;51.478;5.710;2023-04-22T10:17:32;22.20;80.80
45339;DHT22;31071;51.478;5.710;2023-04-22T10:20:02;23.30;79.40
45339;DHT22;31071;51.478;5.710;2023-04-22T10:22:33;23.10;75.80
45339;DHT22;31071;51.478;5.710;2023-04-22T10:24:59;22.50;77.30
45339;DHT22;31071;51.478;5.710;2023-04-22T10:27:25;21.60;80.70
45339;DHT22;31071;51.478;5.710;2023-04-22T10:29:50;22.00;80.60
45339;DHT22;31071;51.478;5.710;2023-04-22T10:34:48;22.30;79.00
45339;DHT22;31071;51.478;5.710;2023-04-22T10:37:17;21.50;80.50
45339;DHT22;31071;51.478;5.710;2023-04-22T10:40:10;20.20;87.50
45339;DHT22;31071;51.478;5.710;2023-04-22T10:42:40;20.10;88.20
45339;DHT22;31071;51.478;5.710;2023-04-22T10:45:06;19.80;87.10
45339;DHT22;31071;51.478;5.710;2023-04-22T10:47:32;19.60;89.80
45339;DHT22;31071;51.478;5.710;2023-04-22T10:50:21;20.50;89.00
45339;DHT22;31071;51.478;5.710;2023-04-22T10:55:18;21.60;85.00
45339;DHT22;31071;51.478;5.710;2023-04-22T10:57:45;22.30;83.20
45339;DHT22;31071;51.478;5.710;2023-04-22T11:00:23;23.20;80.50
45339;DHT22;31071;51.478;5.710;2023-04-22T11:03:12;22.30;79.00
45339;DHT22;31071;51.478;5.710;2023-04-22T11:05:37;21.20;83.40
45339;DHT22;31071;51.478;5.710;2023-04-22T11:08:13;20.00;85.90
45339;DHT22;31071;51.478;5.710;2023-04-22T11:10:42;19.60;89.30
45339;DHT22;31071;51.478;5.710;2023-04-22T11:13:18;19.50;90.50
45339;DHT22;31071;51.478;5.710;2023-04-22T11:15:50;19.00;91.30
45339;DHT22;31071;51.478;5.710;2023-04-22T11:18:23;18.90;91.50
45339;DHT22;31071;51.478;5.710;2023-04-22T11:20:49;22.00;92.90
45339;DHT22;31071;51.478;5.710;2023-04-22T11:23:27;20.60;93.00
45339;DHT22;31071;51.478;5.710;2023-04-22T11:26:04;18.50;92.90
45339;DHT22;31071;51.478;5.710;2023-04-22T11:28:30;22.10;94.20
45339;DHT22;31071;51.478;5.710;2023-04-22T11:31:04;18.40;93.70
45339;DHT22;31071;51.478;5.710;2023-04-22T11:33:32;18.70;93.50
45339;DHT22;31071;51.478;5.710;2023-04-22T11:35:58;19.50;93.60
45339;DHT22;31071;51.478;5.710;2023-04-22T11:40:49;18.60;93.10
45339;DHT22;31071;51.478;5.710;2023-04-22T11:43:15;22.10;94.90
45339;DHT22;31071;51.478;5.710;2023-04-22T11:45:46;18.70;93.50
45339;DHT22;31071;51.478;5.710;2023-04-22T11:48:16;18.40;93.60
45339;DHT22;31071;51.478;5.710;2023-04-22T11:50:45;17.20;93.50
45339;DHT22;31071;51.478;5.710;2023-04-22T11:53:14;18.10;93.60
45339;DHT22;31071;51.478;5.710;2023-04-22T11:55:43;18.50;94.10
45339;DHT22;31071;51.478;5.710;2023-04-22T11:58:32;18.50;93.60
45339;DHT22;31071;51.478;5.710;2023-04-22T12:01:11;18.50;93.30
45339;DHT22;31071;51.478;5.710;2023-04-22T12:03:38;20.70;94.20
45339;DHT22;31071;51.478;5.710;2023-04-22T12:06:04;19.30;93.70
45339;DHT22;31071;51.478;5.710;2023-04-22T12:08:35;18.50;93.10
45339;DHT22;31071;51.478;5.710;2023-04-22T12:11:03;18.50;93.00
45339;DHT22;31071;51.478;5.710;2023-04-22T12:16:04;18.60;92.50
45339;DHT22;31071;51.478;5.710;2023-04-22T12:18:31;19.20;93.00
45339;DHT22;31071;51.478;5.710;2023-04-22T12:23:44;18.10;94.00
45339;DHT22;31071;51.478;5.710;2023-04-22T12:26:11;17.80;95.20
45339;DHT22;31071;51.478;5.710;2023-04-22T12:28:38;17.70;96.10
45339;DHT22;31071;51.478;5.710;2023-04-22T12:33:30;17.40;98.40
45339;DHT22;31071;51.478;5.710;2023-04-22T12:40:48;17.40;99.70
45339;DHT22;31071;51.478;5.710;2023-04-22T12:43:13;17.50;99.90
45339;DHT22;31071;51.478;5.710;2023-04-22T12:45:39;18.60;99.90
45339;DHT22;31071;51.478;5.710;2023-04-22T12:52:57;17.10;99.90
45339;DHT22;31071;51.478;5.710;2023-04-22T12:57:49;16.90;99.90
45339;DHT22;31071;51.478;5.710;2023-04-22T13:02:43;16.50;99.90
45339;DHT22;31071;51.478;5.710;2023-04-22T13:05:09;18.60;99.90
45339;DHT22;31071;51.478;5.710;2023-04-22T13:07:36;17.60;99.90
45339;DHT22;31071;51.478;5.710;2023-04-22T13:12:28;15.90;99.90
45339;DHT22;31071;51.478;5.710;2023-04-22T13:14:53;15.70;99.90
45339;DHT22;31071;51.478;5.710;2023-04-22T13:17:19;15.60;99.90
45339;DHT22;31071;51.478;5.710;2023-04-22T13:19:46;15.40;99.90
45339;DHT22;31071;51.478;5.710;2023-04-22T13:22:12;15.30;99.90
45339;DHT22;31071;51.478;5.710;2023-04-22T13:24:38;18.40;99.90
45339;DHT22;31071;51.478;5.710;2023-04-22T13:27:04;18.00;99.90
45339;DHT22;31071;51.478;5.710;2023-04-22T13:29:31;16.60;99.90
45339;DHT22;31071;51.478;5.710;2023-04-22T13:31:57;18.00;99.90
45339;DHT22;31071;51.478;5.710;2023-04-22T13:39:15;15.70;99.90
45339;DHT22;31071;51.478;5.710;2023-04-22T13:41:41;15.80;99.90
45339;DHT22;31071;51.478;5.710;2023-04-22T13:44:06;18.00;99.90
45339;DHT22;31071;51.478;5.710;2023-04-22T13:48:58;16.40;99.90
45339;DHT22;31071;51.478;5.710;2023-04-22T13:51:23;17.30;99.90
45339;DHT22;31071;51.478;5.710;2023-04-22T13:53:49;16.00;99.90
45339;DHT22;31071;51.478;5.710;2023-04-22T13:56:15;16.70;99.90
45339;DHT22;31071;51.478;5.710;2023-04-22T13:58:40;18.40;99.90
45339;DHT22;31071;51.478;5.710;2023-04-22T14:01:07;17.10;99.90
45339;DHT22;31071;51.478;5.710;2023-04-22T14:03:34;16.30;99.90
45339;DHT22;31071;51.478;5.710;2023-04-22T14:06:00;16.10;99.90
45339;DHT22;31071;51.478;5.710;2023-04-22T14:08:26;16.20;99.90
45339;DHT22;31071;51.478;5.710;2023-04-22T14:10:53;16.20;99.90
45339;DHT22;31071;51.478;5.710;2023-04-22T14:13:19;19.60;99.90
45339;DHT22;31071;51.478;5.710;2023-04-22T14:15:45;17.90;99.90
45339;DHT22;31071;51.478;5.710;2023-04-22T14:18:11;16.10;99.90
45339;DHT22;31071;51.478;5.710;2023-04-22T14:20:37;18.90;99.90
45339;DHT22;31071;51.478;5.710;2023-04-22T14:23:03;15.80;99.90
45339;DHT22;31071;51.478;5.710;2023-04-22T14:25:30;15.50;99.90
45339;DHT22;31071;51.478;5.710;2023-04-22T14:27:55;15.30;99.90
45339;DHT22;31071;51.478;5.710;2023-04-22T14:30:21;15.20;99.90
45339;DHT22;31071;51.478;5.710;2023-04-22T14:32:48;15.10;99.90
45339;DHT22;31071;51.478;5.710;2023-04-22T14:35:13;15.00;99.90
45339;DHT22;31071;51.478;5.710;2023-04-22T14:40:06;14.70;99.90
45339;DHT22;31071;51.478;5.710;2023-04-22T14:42:32;14.70;99.90
45339;DHT22;31071;51.478;5.710;2023-04-22T14:44:58;14.70;99.90
45339;DHT22;31071;51.478;5.710;2023-04-22T14:49:49;14.60;99.90
45339;DHT22;31071;51.478;5.710;2023-04-22T14:54:41;14.30;99.90
45339;DHT22;31071;51.478;5.710;2023-04-22T14:57:07;14.30;99.90
45339;DHT22;31071;51.478;5.710;2023-04-22T14:59:32;16.40;99.90
45339;DHT22;31071;51.478;5.710;2023-04-22T15:01:58;14.10;99.90
45339;DHT22;31071;51.478;5.710;2023-04-22T15:04:23;14.20;99.90
45339;DHT22;31071;51.478;5.710;2023-04-22T15:06:50;14.10;99.90
45339;DHT22;31071;51.478;5.710;2023-04-22T15:09:17;14.00;99.90
45339;DHT22;31071;51.478;5.710;2023-04-22T15:11:43;14.10;99.90
45339;DHT22;31071;51.478;5.710;2023-04-22T15:14:08;15.80;99.90
45339;DHT22;31071;51.478;5.710;2023-04-22T15:16:34;14.10;99.90
45339;DHT22;31071;51.478;5.710;2023-04-22T15:19:00;14.10;99.90
45339;DHT22;31071;51.478;5.710;2023-04-22T15:21:25;14.10;99.90
45339;DHT22;31071;51.478;5.710;2023-04-22T15:23:51;14.20;99.90
45339;DHT22;31071;51.478;5.710;2023-04-22T15:26:16;14.20;99.90
45339;DHT22;31071;51.478;5.710;2023-04-22T15:28:42;14.30;99.90
45339;DHT22;31071;51.478;5.710;2023-04-22T15:31:07;14.30;99.90
45339;DHT22;31071;51.478;5.710;2023-04-22T15:33:33;14.40;99.90
45339;DHT22;31071;51.478;5.710;2023-04-22T15:35:59;14.50;99.90
45339;DHT22;31071;51.478;5.710;2023-04-22T15:38:24;14.50;99.90
45339;DHT22;31071;51.478;5.710;2023-04-22T15:40:50;14.50;99.90
45339;DHT22;31071;51.478;5.710;2023-04-22T15:43:15;14.50;99.90
45339;DHT22;31071;51.478;5.710;2023-04-22T15:45:41;14.60;99.90
45339;DHT22;31071;51.478;5.710;2023-04-22T15:48:07;14.40;99.90
45339;DHT22;31071;51.478;5.710;2023-04-22T15:50:33;14.50;99.90
45339;DHT22;31071;51.478;5.710;2023-04-22T15:53:00;14.50;99.90
45339;DHT22;31071;51.478;5.710;2023-04-22T15:55:26;14.50;99.90
45339;DHT22;31071;51.478;5.710;2023-04-22T15:57:51;14.40;99.90
45339;DHT22;31071;51.478;5.710;2023-04-22T16:00:17;14.50;99.90
45339;DHT22;31071;51.478;5.710;2023-04-22T16:02:43;14.50;99.90
45339;DHT22;31071;51.478;5.710;2023-04-22T16:05:09;14.50;99.90
45339;DHT22;31071;51.478;5.710;2023-04-22T16:07:35;14.50;99.90
45339;DHT22;31071;51.478;5.710;2023-04-22T16:10:01;14.40;99.90
45339;DHT22;31071;51.478;5.710;2023-04-22T16:12:26;14.50;99.90
45339;DHT22;31071;51.478;5.710;2023-04-22T16:14:52;14.60;99.90
45339;DHT22;31071;51.478;5.710;2023-04-22T16:17:17;14.50;99.90
45339;DHT22;31071;51.478;5.710;2023-04-22T16:19:44;14.50;99.90
45339;DHT22;31071;51.478;5.710;2023-04-22T16:22:09;14.50;99.90
45339;DHT22;31071;51.478;5.710;2023-04-22T16:24:35;15.90;99.90
45339;DHT22;31071;51.478;5.710;2023-04-22T16:27:00;14.50;99.90
45339;DHT22;31071;51.478;5.710;2023-04-22T16:29:27;14.60;99.90
45339;DHT22;31071;51.478;5.710;2023-04-22T16:31:56;15.30;99.90